sensor_id;sensor_type;location;lat;lon;timestamp;temperature;humidity
19214;DHT22;9741;51.020;5.304;2023-05-28T00:00:58;13.00;48.60
19214;DHT22;9741;51.020;5.304;2023-05-28T00:03:27;12.90;48.70
19214;DHT22;9741;51.020;5.304;2023-05-28T00:05:58;12.90;49.40
19214;DHT22;9741;51.020;5.304;2023-05-28T00:08:26;12.90;49.00
19214;DHT22;9741;51.020;5.304;2023-05-28T00:10:54;12.80;49.10
19214;DHT22;9741;51.020;5.304;2023-05-28T00:13:30;12.80;49.10
19214;DHT22;9741;51.020;5.304;2023-05-28T00:15:58;12.80;49.30
19214;DHT22;9741;51.020;5.304;2023-05-28T00:18:26;12.70;49.20
19214;DHT22;9741;51.020;5.304;2023-05-28T00:20:56;12.70;49.30
19214;DHT22;9741;51.020;5.304;2023-05-28T00:23:24;12.70;49.40
19214;DHT22;9741;51.020;5.304;2023-05-28T00:25:52;12.60;49.40
19214;DHT22;9741;51.020;5.304;2023-05-28T00:28:20;12.60;49.50
19214;DHT22;9741;51.020;5.304;2023-05-28T00:30:48;12.60;49.60
19214;DHT22;9741;51.020;5.304;2023-05-28T00:33:16;12.50;49.70
19214;DHT22;9741;51.020;5.304;2023-05-28T00:35:44;12.50;49.70
19214;DHT22;9741;51.020;5.304;2023-05-28T00:38:12;12.40;49.80
19214;DHT22;9741;51.020;5.304;2023-05-28T00:40:43;12.40;49.90
19214;DHT22;9741;51.020;5.304;2023-05-28T00:43:11;12.40;50.00
19214;DHT22;9741;51.020;5.304;2023-05-28T00:45:38;12.40;50.10
19214;DHT22;9741;51.020;5.304;2023-05-28T00:48:07;12.30;50.10
19214;DHT22;9741;51.020;5.304;2023-05-28T00:50:35;12.30;50.20
19214;DHT22;9741;51.020;5.304;2023-05-28T00:53:05;12.30;50.30
19214;DHT22;9741;51.020;5.304;2023-05-28T00:55:34;12.20;50.30
19214;DHT22;9741;51.020;5.304;2023-05-28T00:58:03;12.20;50.40
19214;DHT22;9741;51.020;5.304;2023-05-28T01:00:32;12.20;50.50
19214;DHT22;9741;51.020;5.304;2023-05-28T01:03:00;12.10;50.50
19214;DHT22;9741;51.020;5.304;2023-05-28T01:05:29;12.10;50.60
19214;DHT22;9741;51.020;5.304;2023-05-28T01:07:58;12.10;50.60
19214;DHT22;9741;51.020;5.304;2023-05-28T01:10:27;12.00;50.60
19214;DHT22;9741;51.020;5.304;2023-05-28T01:12:56;12.00;50.70
19214;DHT22;9741;51.020;5.304;2023-05-28T01:15:25;11.90;50.70
19214;DHT22;9741;51.020;5.304;2023-05-28T01:17:57;11.90;50.80
19214;DHT22;9741;51.020;5.304;2023-05-28T01:20:26;11.80;50.90
19214;DHT22;9741;51.020;5.304;2023-05-28T01:22:59;11.70;50.90
19214;DHT22;9741;51.020;5.304;2023-05-28T01:25:31;11.70;51.00
19214;DHT22;9741;51.020;5.304;2023-05-28T01:27:59;11.60;51.10
19214;DHT22;9741;51.020;5.304;2023-05-28T01:30:29;11.60;51.20
19214;DHT22;9741;51.020;5.304;2023-05-28T01:33:01;11.50;51.30
19214;DHT22;9741;51.020;5.304;2023-05-28T01:35:29;11.50;51.40
19214;DHT22;9741;51.020;5.304;2023-05-28T01:38:00;11.40;51.40
19214;DHT22;9741;51.020;5.304;2023-05-28T01:40:31;11.40;51.50
19214;DHT22;9741;51.020;5.304;2023-05-28T01:43:01;11.40;51.70
19214;DHT22;9741;51.020;5.304;2023-05-28T01:45:29;11.30;51.60
19214;DHT22;9741;51.020;5.304;2023-05-28T01:47:57;11.30;51.80
19214;DHT22;9741;51.020;5.304;2023-05-28T01:50:27;11.30;51.80
19214;DHT22;9741;51.020;5.304;2023-05-28T01:52:54;11.30;51.90
19214;DHT22;9741;51.020;5.304;2023-05-28T01:55:23;11.30;51.90
19214;DHT22;9741;51.020;5.304;2023-05-28T01:57:53;11.20;51.80
19214;DHT22;9741;51.020;5.304;2023-05-28T02:00:21;11.20;51.90
19214;DHT22;9741;51.020;5.304;2023-05-28T02:02:49;11.10;51.80
19214;DHT22;9741;51.020;5.304;2023-05-28T02:05:17;11.10;51.90
19214;DHT22;9741;51.020;5.304;2023-05-28T02:07:45;11.00;52.00
19214;DHT22;9741;51.020;5.304;2023-05-28T02:10:13;11.00;52.00
19214;DHT22;9741;51.020;5.304;2023-05-28T02:12:43;10.90;52.00
19214;DHT22;9741;51.020;5.304;2023-05-28T02:15:13;10.90;52.10
19214;DHT22;9741;51.020;5.304;2023-05-28T02:17:40;10.80;52.10
19214;DHT22;9741;51.020;5.304;2023-05-28T02:20:12;10.80;52.20
19214;DHT22;9741;51.020;5.304;2023-05-28T02:22:39;10.80;52.40
19214;DHT22;9741;51.020;5.304;2023-05-28T02:25:07;10.80;52.40
19214;DHT22;9741;51.020;5.304;2023-05-28T02:27:34;10.70;52.40
19214;DHT22;9741;51.020;5.304;2023-05-28T02:30:03;10.70;52.50
19214;DHT22;9741;51.020;5.304;2023-05-28T02:32:32;10.70;52.60
19214;DHT22;9741;51.020;5.304;2023-05-28T02:35:00;10.70;52.70
19214;DHT22;9741;51.020;5.304;2023-05-28T02:37:28;10.60;52.70
19214;DHT22;9741;51.020;5.304;2023-05-28T02:39:56;10.60;52.80
19214;DHT22;9741;51.020;5.304;2023-05-28T02:42:24;10.60;52.90
19214;DHT22;9741;51.020;5.304;2023-05-28T02:44:51;10.50;52.80
19214;DHT22;9741;51.020;5.304;2023-05-28T02:47:19;10.50;52.80
19214;DHT22;9741;51.020;5.304;2023-05-28T02:49:49;10.50;52.90
19214;DHT22;9741;51.020;5.304;2023-05-28T02:52:17;10.40;53.00
19214;DHT22;9741;51.020;5.304;2023-05-28T02:54:44;10.40;53.10
19214;DHT22;9741;51.020;5.304;2023-05-28T02:57:14;10.50;53.30
19214;DHT22;9741;51.020;5.304;2023-05-28T02:59:41;10.40;53.30
19214;DHT22;9741;51.020;5.304;2023-05-28T03:02:09;10.40;53.30
19214;DHT22;9741;51.020;5.304;2023-05-28T03:04:39;10.50;53.50
19214;DHT22;9741;51.020;5.304;2023-05-28T03:07:08;10.40;53.40
19214;DHT22;9741;51.020;5.304;2023-05-28T03:09:37;10.50;53.60
19214;DHT22;9741;51.020;5.304;2023-05-28T03:12:06;10.40;53.60
19214;DHT22;9741;51.020;5.304;2023-05-28T03:14:33;10.40;53.60
19214;DHT22;9741;51.020;5.304;2023-05-28T03:17:05;10.40;53.60
19214;DHT22;9741;51.020;5.304;2023-05-28T03:19:32;10.40;53.70
19214;DHT22;9741;51.020;5.304;2023-05-28T03:22:02;10.40;53.70
19214;DHT22;9741;51.020;5.304;2023-05-28T03:24:32;10.40;53.80
19214;DHT22;9741;51.020;5.304;2023-05-28T03:27:01;10.40;53.80
19214;DHT22;9741;51.020;5.304;2023-05-28T03:29:29;10.40;53.90
19214;DHT22;9741;51.020;5.304;2023-05-28T03:31:57;10.30;53.80
19214;DHT22;9741;51.020;5.304;2023-05-28T03:34:25;10.30;53.90
19214;DHT22;9741;51.020;5.304;2023-05-28T03:36:55;10.30;53.90
19214;DHT22;9741;51.020;5.304;2023-05-28T03:39:23;10.30;54.00
19214;DHT22;9741;51.020;5.304;2023-05-28T03:41:56;10.30;54.00
19214;DHT22;9741;51.020;5.304;2023-05-28T03:44:23;10.30;54.10
19214;DHT22;9741;51.020;5.304;2023-05-28T03:46:52;10.30;54.20
19214;DHT22;9741;51.020;5.304;2023-05-28T03:49:19;10.40;54.30
19214;DHT22;9741;51.020;5.304;2023-05-28T03:51:47;10.40;54.30
19214;DHT22;9741;51.020;5.304;2023-05-28T03:54:15;10.40;54.30
19214;DHT22;9741;51.020;5.304;2023-05-28T03:56:42;10.40;54.30
19214;DHT22;9741;51.020;5.304;2023-05-28T03:59:12;10.40;54.30
19214;DHT22;9741;51.020;5.304;2023-05-28T04:01:39;10.40;54.30
19214;DHT22;9741;51.020;5.304;2023-05-28T04:04:07;10.50;54.40
19214;DHT22;9741;51.020;5.304;2023-05-28T04:06:35;10.50;54.90
19214;DHT22;9741;51.020;5.304;2023-05-28T04:09:03;10.60;54.40
19214;DHT22;9741;51.020;5.304;2023-05-28T04:11:31;10.60;54.40
19214;DHT22;9741;51.020;5.304;2023-05-28T04:14:01;10.60;54.40
19214;DHT22;9741;51.020;5.304;2023-05-28T04:16:30;10.70;54.40
19214;DHT22;9741;51.020;5.304;2023-05-28T04:18:57;10.70;54.40
19214;DHT22;9741;51.020;5.304;2023-05-28T04:21:26;10.80;54.50
19214;DHT22;9741;51.020;5.304;2023-05-28T04:23:56;10.80;55.00
19214;DHT22;9741;51.020;5.304;2023-05-28T04:26:23;10.90;54.50
19214;DHT22;9741;51.020;5.304;2023-05-28T04:28:52;11.00;54.50
19214;DHT22;9741;51.020;5.304;2023-05-28T04:31:30;11.10;54.50
19214;DHT22;9741;51.020;5.304;2023-05-28T04:33:57;11.10;54.30
19214;DHT22;9741;51.020;5.304;2023-05-28T04:36:26;11.20;54.40
19214;DHT22;9741;51.020;5.304;2023-05-28T04:38:59;11.20;54.30
19214;DHT22;9741;51.020;5.304;2023-05-28T04:41:29;11.30;54.40
19214;DHT22;9741;51.020;5.304;2023-05-28T04:43:57;11.40;54.40
19214;DHT22;9741;51.020;5.304;2023-05-28T04:46:25;11.40;54.50
19214;DHT22;9741;51.020;5.304;2023-05-28T04:48:57;11.80;55.20
19214;DHT22;9741;51.020;5.304;2023-05-28T04:51:24;12.50;55.60
19214;DHT22;9741;51.020;5.304;2023-05-28T04:53:53;13.30;55.40
19214;DHT22;9741;51.020;5.304;2023-05-28T04:56:20;14.20;54.70
19214;DHT22;9741;51.020;5.304;2023-05-28T04:58:48;15.10;53.90
19214;DHT22;9741;51.020;5.304;2023-05-28T05:01:15;16.00;53.10
19214;DHT22;9741;51.020;5.304;2023-05-28T05:03:43;16.60;52.30
19214;DHT22;9741;51.020;5.304;2023-05-28T05:06:15;17.30;51.70
19214;DHT22;9741;51.020;5.304;2023-05-28T05:08:42;18.00;51.10
19214;DHT22;9741;51.020;5.304;2023-05-28T05:11:09;18.80;50.50
19214;DHT22;9741;51.020;5.304;2023-05-28T05:13:37;19.50;49.80
19214;DHT22;9741;51.020;5.304;2023-05-28T05:16:05;20.20;49.30
19214;DHT22;9741;51.020;5.304;2023-05-28T05:18:32;20.60;48.90
19214;DHT22;9741;51.020;5.304;2023-05-28T05:21:00;21.20;48.70
19214;DHT22;9741;51.020;5.304;2023-05-28T05:23:32;21.70;48.10
19214;DHT22;9741;51.020;5.304;2023-05-28T05:26:02;22.20;47.50
19214;DHT22;9741;51.020;5.304;2023-05-28T05:28:30;22.70;47.10
19214;DHT22;9741;51.020;5.304;2023-05-28T05:30:57;23.20;46.90
19214;DHT22;9741;51.020;5.304;2023-05-28T05:33:26;23.70;46.30
19214;DHT22;9741;51.020;5.304;2023-05-28T05:35:56;24.30;45.60
19214;DHT22;9741;51.020;5.304;2023-05-28T05:38:24;25.00;45.00
19214;DHT22;9741;51.020;5.304;2023-05-28T05:40:55;25.70;44.50
19214;DHT22;9741;51.020;5.304;2023-05-28T05:43:22;26.30;43.10
19214;DHT22;9741;51.020;5.304;2023-05-28T05:45:50;26.70;42.30
19214;DHT22;9741;51.020;5.304;2023-05-28T05:48:18;27.10;41.80
19214;DHT22;9741;51.020;5.304;2023-05-28T05:50:50;27.70;41.40
19214;DHT22;9741;51.020;5.304;2023-05-28T05:53:19;28.50;40.60
19214;DHT22;9741;51.020;5.304;2023-05-28T05:55:50;29.20;40.00
19214;DHT22;9741;51.020;5.304;2023-05-28T05:58:19;29.90;39.30
19214;DHT22;9741;51.020;5.304;2023-05-28T06:00:47;30.40;38.40
19214;DHT22;9741;51.020;5.304;2023-05-28T06:03:16;30.80;37.80
19214;DHT22;9741;51.020;5.304;2023-05-28T06:05:44;31.10;37.30
19214;DHT22;9741;51.020;5.304;2023-05-28T06:08:12;31.20;36.60
19214;DHT22;9741;51.020;5.304;2023-05-28T06:10:39;31.20;36.20
19214;DHT22;9741;51.020;5.304;2023-05-28T06:13:07;31.10;35.70
19214;DHT22;9741;51.020;5.304;2023-05-28T06:15:41;30.90;35.60
19214;DHT22;9741;51.020;5.304;2023-05-28T06:18:10;30.50;35.60
19214;DHT22;9741;51.020;5.304;2023-05-28T06:20:39;30.60;35.80
19214;DHT22;9741;51.020;5.304;2023-05-28T06:23:08;30.70;35.40
19214;DHT22;9741;51.020;5.304;2023-05-28T06:25:35;30.70;35.20
19214;DHT22;9741;51.020;5.304;2023-05-28T06:28:05;30.80;35.20
19214;DHT22;9741;51.020;5.304;2023-05-28T06:30:32;31.10;34.80
19214;DHT22;9741;51.020;5.304;2023-05-28T06:33:04;31.60;34.30
19214;DHT22;9741;51.020;5.304;2023-05-28T06:35:33;32.20;33.80
19214;DHT22;9741;51.020;5.304;2023-05-28T06:38:03;32.70;33.30
19214;DHT22;9741;51.020;5.304;2023-05-28T06:40:31;33.30;32.90
19214;DHT22;9741;51.020;5.304;2023-05-28T06:42:59;33.90;32.60
19214;DHT22;9741;51.020;5.304;2023-05-28T06:45:28;34.50;31.80
19214;DHT22;9741;51.020;5.304;2023-05-28T06:48:05;34.70;31.20
19214;DHT22;9741;51.020;5.304;2023-05-28T06:50:33;34.80;30.70
19214;DHT22;9741;51.020;5.304;2023-05-28T06:53:01;34.90;30.40
19214;DHT22;9741;51.020;5.304;2023-05-28T06:55:29;35.10;30.20
19214;DHT22;9741;51.020;5.304;2023-05-28T06:57:56;35.30;30.00
19214;DHT22;9741;51.020;5.304;2023-05-28T07:00:25;35.50;29.70
19214;DHT22;9741;51.020;5.304;2023-05-28T07:03:04;35.50;29.40
19214;DHT22;9741;51.020;5.304;2023-05-28T07:05:31;35.40;29.10
19214;DHT22;9741;51.020;5.304;2023-05-28T07:08:02;35.40;29.20
19214;DHT22;9741;51.020;5.304;2023-05-28T07:10:32;35.60;29.10
19214;DHT22;9741;51.020;5.304;2023-05-28T07:12:59;35.90;29.10
19214;DHT22;9741;51.020;5.304;2023-05-28T07:15:27;36.30;28.90
19214;DHT22;9741;51.020;5.304;2023-05-28T07:17:58;36.60;28.50
19214;DHT22;9741;51.020;5.304;2023-05-28T07:20:31;36.80;28.10
19214;DHT22;9741;51.020;5.304;2023-05-28T07:22:59;36.80;28.00
19214;DHT22;9741;51.020;5.304;2023-05-28T07:25:27;36.90;27.90
19214;DHT22;9741;51.020;5.304;2023-05-28T07:27:55;36.90;27.90
19214;DHT22;9741;51.020;5.304;2023-05-28T07:30:23;37.10;28.00
19214;DHT22;9741;51.020;5.304;2023-05-28T07:32:51;37.40;27.70
19214;DHT22;9741;51.020;5.304;2023-05-28T07:35:18;37.70;27.50
19214;DHT22;9741;51.020;5.304;2023-05-28T07:37:49;37.90;27.30
19214;DHT22;9741;51.020;5.304;2023-05-28T07:40:17;37.90;26.90
19214;DHT22;9741;51.020;5.304;2023-05-28T07:42:46;37.60;26.60
19214;DHT22;9741;51.020;5.304;2023-05-28T07:45:14;37.20;26.80
19214;DHT22;9741;51.020;5.304;2023-05-28T07:47:43;36.70;26.90
19214;DHT22;9741;51.020;5.304;2023-05-28T07:50:11;36.30;27.10
19214;DHT22;9741;51.020;5.304;2023-05-28T07:52:39;35.70;27.50
19214;DHT22;9741;51.020;5.304;2023-05-28T07:55:13;35.20;27.80
19214;DHT22;9741;51.020;5.304;2023-05-28T07:57:41;34.80;28.00
19214;DHT22;9741;51.020;5.304;2023-05-28T08:00:10;34.30;28.10
19214;DHT22;9741;51.020;5.304;2023-05-28T08:02:40;34.00;28.10
19214;DHT22;9741;51.020;5.304;2023-05-28T08:05:08;33.60;28.10
19214;DHT22;9741;51.020;5.304;2023-05-28T08:07:36;33.20;28.20
19214;DHT22;9741;51.020;5.304;2023-05-28T08:10:05;32.70;28.20
19214;DHT22;9741;51.020;5.304;2023-05-28T08:12:39;32.20;28.20
19214;DHT22;9741;51.020;5.304;2023-05-28T08:15:07;31.60;28.40
19214;DHT22;9741;51.020;5.304;2023-05-28T08:17:34;31.20;28.60
19214;DHT22;9741;51.020;5.304;2023-05-28T08:20:03;30.80;28.90
19214;DHT22;9741;51.020;5.304;2023-05-28T08:22:31;30.30;29.10
19214;DHT22;9741;51.020;5.304;2023-05-28T08:24:59;30.00;29.40
19214;DHT22;9741;51.020;5.304;2023-05-28T08:27:28;29.70;29.40
19214;DHT22;9741;51.020;5.304;2023-05-28T08:29:57;29.30;29.70
19214;DHT22;9741;51.020;5.304;2023-05-28T08:32:25;28.90;29.90
19214;DHT22;9741;51.020;5.304;2023-05-28T08:34:53;28.60;30.00
19214;DHT22;9741;51.020;5.304;2023-05-28T08:37:21;28.40;30.30
19214;DHT22;9741;51.020;5.304;2023-05-28T08:39:55;28.10;31.20
19214;DHT22;9741;51.020;5.304;2023-05-28T08:42:23;27.90;30.60
19214;DHT22;9741;51.020;5.304;2023-05-28T08:44:53;27.70;30.80
19214;DHT22;9741;51.020;5.304;2023-05-28T08:47:23;27.40;31.00
19214;DHT22;9741;51.020;5.304;2023-05-28T08:49:53;27.20;31.20
19214;DHT22;9741;51.020;5.304;2023-05-28T08:52:22;27.10;31.50
19214;DHT22;9741;51.020;5.304;2023-05-28T08:54:52;27.00;31.80
19214;DHT22;9741;51.020;5.304;2023-05-28T08:57:20;26.80;32.10
19214;DHT22;9741;51.020;5.304;2023-05-28T08:59:49;26.80;32.20
19214;DHT22;9741;51.020;5.304;2023-05-28T09:02:17;26.60;32.30
19214;DHT22;9741;51.020;5.304;2023-05-28T09:04:46;26.50;32.40
19214;DHT22;9741;51.020;5.304;2023-05-28T09:07:16;26.30;32.50
19214;DHT22;9741;51.020;5.304;2023-05-28T09:09:45;26.10;32.60
19214;DHT22;9741;51.020;5.304;2023-05-28T09:12:12;26.00;32.70
19214;DHT22;9741;51.020;5.304;2023-05-28T09:14:41;25.80;32.80
19214;DHT22;9741;51.020;5.304;2023-05-28T09:17:09;25.70;33.00
19214;DHT22;9741;51.020;5.304;2023-05-28T09:19:39;25.70;33.10
19214;DHT22;9741;51.020;5.304;2023-05-28T09:22:13;25.60;33.10
19214;DHT22;9741;51.020;5.304;2023-05-28T09:24:42;25.70;33.30
19214;DHT22;9741;51.020;5.304;2023-05-28T09:27:14;25.70;33.30
19214;DHT22;9741;51.020;5.304;2023-05-28T09:29:46;25.70;33.20
19214;DHT22;9741;51.020;5.304;2023-05-28T09:32:18;25.70;33.50
19214;DHT22;9741;51.020;5.304;2023-05-28T09:34:49;25.70;33.70
19214;DHT22;9741;51.020;5.304;2023-05-28T09:37:18;25.70;33.70
19214;DHT22;9741;51.020;5.304;2023-05-28T09:39:59;25.70;33.80
19214;DHT22;9741;51.020;5.304;2023-05-28T09:42:34;25.80;33.90
19214;DHT22;9741;51.020;5.304;2023-05-28T09:45:08;25.80;33.80
19214;DHT22;9741;51.020;5.304;2023-05-28T09:47:42;25.80;33.70
19214;DHT22;9741;51.020;5.304;2023-05-28T09:50:11;25.80;33.60
19214;DHT22;9741;51.020;5.304;2023-05-28T09:52:43;25.80;33.50
19214;DHT22;9741;51.020;5.304;2023-05-28T09:55:15;25.80;33.40
19214;DHT22;9741;51.020;5.304;2023-05-28T09:57:46;25.90;33.70
19214;DHT22;9741;51.020;5.304;2023-05-28T10:00:23;25.80;33.80
19214;DHT22;9741;51.020;5.304;2023-05-28T10:03:05;25.90;33.80
19214;DHT22;9741;51.020;5.304;2023-05-28T10:05:42;25.90;33.80
19214;DHT22;9741;51.020;5.304;2023-05-28T10:08:18;25.90;33.90
19214;DHT22;9741;51.020;5.304;2023-05-28T10:10:51;26.00;34.00
19214;DHT22;9741;51.020;5.304;2023-05-28T10:13:19;26.10;34.00
19214;DHT22;9741;51.020;5.304;2023-05-28T10:15:48;26.10;34.10
19214;DHT22;9741;51.020;5.304;2023-05-28T10:18:16;26.20;33.80
19214;DHT22;9741;51.020;5.304;2023-05-28T10:20:47;26.30;33.70
19214;DHT22;9741;51.020;5.304;2023-05-28T10:23:21;26.20;33.40
19214;DHT22;9741;51.020;5.304;2023-05-28T10:25:48;26.20;33.20
19214;DHT22;9741;51.020;5.304;2023-05-28T10:28:16;26.10;33.00
19214;DHT22;9741;51.020;5.304;2023-05-28T10:30:44;26.10;32.90
19214;DHT22;9741;51.020;5.304;2023-05-28T10:33:16;26.10;33.00
19214;DHT22;9741;51.020;5.304;2023-05-28T10:35:52;26.10;33.00
19214;DHT22;9741;51.020;5.304;2023-05-28T10:38:22;26.00;32.90
19214;DHT22;9741;51.020;5.304;2023-05-28T10:40:50;25.90;32.90
19214;DHT22;9741;51.020;5.304;2023-05-28T10:43:43;25.90;33.10
19214;DHT22;9741;51.020;5.304;2023-05-28T10:46:15;26.00;33.50
19214;DHT22;9741;51.020;5.304;2023-05-28T10:49:11;26.10;33.40
19214;DHT22;9741;51.020;5.304;2023-05-28T10:51:55;26.20;33.20
19214;DHT22;9741;51.020;5.304;2023-05-28T10:54:39;26.20;33.10
19214;DHT22;9741;51.020;5.304;2023-05-28T10:57:10;26.30;33.20
19214;DHT22;9741;51.020;5.304;2023-05-28T10:59:47;26.30;33.30
19214;DHT22;9741;51.020;5.304;2023-05-28T11:02:18;26.30;33.00
19214;DHT22;9741;51.020;5.304;2023-05-28T11:04:49;26.30;33.50
19214;DHT22;9741;51.020;5.304;2023-05-28T11:07:17;26.40;33.60
19214;DHT22;9741;51.020;5.304;2023-05-28T11:09:49;26.50;33.30
19214;DHT22;9741;51.020;5.304;2023-05-28T11:12:20;26.50;33.20
19214;DHT22;9741;51.020;5.304;2023-05-28T11:14:48;26.50;33.00
19214;DHT22;9741;51.020;5.304;2023-05-28T11:17:18;26.50;32.70
19214;DHT22;9741;51.020;5.304;2023-05-28T11:19:45;26.50;32.60
19214;DHT22;9741;51.020;5.304;2023-05-28T11:22:14;26.60;33.20
19214;DHT22;9741;51.020;5.304;2023-05-28T11:24:55;26.60;32.60
19214;DHT22;9741;51.020;5.304;2023-05-28T11:27:25;26.70;32.40
19214;DHT22;9741;51.020;5.304;2023-05-28T11:29:54;26.70;32.40
19214;DHT22;9741;51.020;5.304;2023-05-28T11:32:21;26.70;32.40
19214;DHT22;9741;51.020;5.304;2023-05-28T11:34:50;26.80;32.40
19214;DHT22;9741;51.020;5.304;2023-05-28T11:37:25;26.80;32.40
19214;DHT22;9741;51.020;5.304;2023-05-28T11:39:56;26.90;32.50
19214;DHT22;9741;51.020;5.304;2023-05-28T11:42:24;26.90;32.40
19214;DHT22;9741;51.020;5.304;2023-05-28T11:44:52;27.00;32.20
19214;DHT22;9741;51.020;5.304;2023-05-28T11:47:20;27.00;31.80
19214;DHT22;9741;51.020;5.304;2023-05-28T11:49:50;27.00;31.60
19214;DHT22;9741;51.020;5.304;2023-05-28T11:52:21;27.00;31.60
19214;DHT22;9741;51.020;5.304;2023-05-28T11:54:53;26.90;31.30
19214;DHT22;9741;51.020;5.304;2023-05-28T11:57:24;27.00;31.40
19214;DHT22;9741;51.020;5.304;2023-05-28T12:00:04;27.00;31.50
19214;DHT22;9741;51.020;5.304;2023-05-28T12:02:42;27.10;31.90
19214;DHT22;9741;51.020;5.304;2023-05-28T12:05:11;27.10;31.50
19214;DHT22;9741;51.020;5.304;2023-05-28T12:07:44;27.10;31.50
19214;DHT22;9741;51.020;5.304;2023-05-28T12:10:14;27.20;31.30
19214;DHT22;9741;51.020;5.304;2023-05-28T12:12:45;27.20;31.40
19214;DHT22;9741;51.020;5.304;2023-05-28T12:15:13;27.30;31.80
19214;DHT22;9741;51.020;5.304;2023-05-28T12:17:45;27.30;31.70
19214;DHT22;9741;51.020;5.304;2023-05-28T12:20:31;27.30;31.60
19214;DHT22;9741;51.020;5.304;2023-05-28T12:23:00;27.30;31.50
19214;DHT22;9741;51.020;5.304;2023-05-28T12:25:28;27.40;31.80
19214;DHT22;9741;51.020;5.304;2023-05-28T12:27:58;27.40;31.50
19214;DHT22;9741;51.020;5.304;2023-05-28T12:30:26;27.30;31.20
19214;DHT22;9741;51.020;5.304;2023-05-28T12:32:53;27.30;31.80
19214;DHT22;9741;51.020;5.304;2023-05-28T12:35:21;27.30;31.10
19214;DHT22;9741;51.020;5.304;2023-05-28T12:37:48;27.40;31.30
19214;DHT22;9741;51.020;5.304;2023-05-28T12:40:16;27.50;31.50
19214;DHT22;9741;51.020;5.304;2023-05-28T12:42:44;27.60;31.50
19214;DHT22;9741;51.020;5.304;2023-05-28T12:45:13;27.60;31.30
19214;DHT22;9741;51.020;5.304;2023-05-28T12:47:41;27.60;31.10
19214;DHT22;9741;51.020;5.304;2023-05-28T12:50:09;27.60;31.10
19214;DHT22;9741;51.020;5.304;2023-05-28T12:52:37;27.60;30.80
19214;DHT22;9741;51.020;5.304;2023-05-28T12:55:06;27.50;30.70
19214;DHT22;9741;51.020;5.304;2023-05-28T12:57:33;27.40;30.70
19214;DHT22;9741;51.020;5.304;2023-05-28T13:00:01;27.30;30.80
19214;DHT22;9741;51.020;5.304;2023-05-28T13:02:32;27.30;30.90
19214;DHT22;9741;51.020;5.304;2023-05-28T13:05:00;27.30;30.90
19214;DHT22;9741;51.020;5.304;2023-05-28T13:07:29;27.30;30.80
19214;DHT22;9741;51.020;5.304;2023-05-28T13:09:57;27.20;30.50
19214;DHT22;9741;51.020;5.304;2023-05-28T13:12:25;27.20;30.50
19214;DHT22;9741;51.020;5.304;2023-05-28T13:14:53;27.10;30.50
19214;DHT22;9741;51.020;5.304;2023-05-28T13:17:21;27.10;30.40
19214;DHT22;9741;51.020;5.304;2023-05-28T13:19:50;27.10;30.10
19214;DHT22;9741;51.020;5.304;2023-05-28T13:22:18;27.00;30.00
19214;DHT22;9741;51.020;5.304;2023-05-28T13:24:47;27.10;30.20
19214;DHT22;9741;51.020;5.304;2023-05-28T13:27:14;27.00;30.50
19214;DHT22;9741;51.020;5.304;2023-05-28T13:29:41;27.00;30.70
19214;DHT22;9741;51.020;5.304;2023-05-28T13:32:10;26.90;30.70
19214;DHT22;9741;51.020;5.304;2023-05-28T13:34:38;26.90;30.60
19214;DHT22;9741;51.020;5.304;2023-05-28T13:37:07;26.90;30.20
19214;DHT22;9741;51.020;5.304;2023-05-28T13:39:35;26.80;30.00
19214;DHT22;9741;51.020;5.304;2023-05-28T13:42:03;26.70;30.00
19214;DHT22;9741;51.020;5.304;2023-05-28T13:44:45;26.70;29.90
19214;DHT22;9741;51.020;5.304;2023-05-28T13:47:14;26.60;29.80
19214;DHT22;9741;51.020;5.304;2023-05-28T13:49:43;26.70;29.60
19214;DHT22;9741;51.020;5.304;2023-05-28T13:52:12;26.70;29.60
19214;DHT22;9741;51.020;5.304;2023-05-28T13:54:40;26.80;29.60
19214;DHT22;9741;51.020;5.304;2023-05-28T13:57:08;26.80;29.50
19214;DHT22;9741;51.020;5.304;2023-05-28T13:59:38;26.80;29.50
19214;DHT22;9741;51.020;5.304;2023-05-28T14:02:06;26.80;29.40
19214;DHT22;9741;51.020;5.304;2023-05-28T14:04:34;26.90;29.40
19214;DHT22;9741;51.020;5.304;2023-05-28T14:07:01;27.00;29.50
19214;DHT22;9741;51.020;5.304;2023-05-28T14:09:32;27.10;29.50
19214;DHT22;9741;51.020;5.304;2023-05-28T14:11:59;27.20;29.50
19214;DHT22;9741;51.020;5.304;2023-05-28T14:14:30;27.20;29.50
19214;DHT22;9741;51.020;5.304;2023-05-28T14:16:57;27.30;29.50
19214;DHT22;9741;51.020;5.304;2023-05-28T14:19:25;27.30;29.50
19214;DHT22;9741;51.020;5.304;2023-05-28T14:21:56;27.30;29.40
19214;DHT22;9741;51.020;5.304;2023-05-28T14:24:23;27.40;29.30
19214;DHT22;9741;51.020;5.304;2023-05-28T14:26:54;27.40;29.50
19214;DHT22;9741;51.020;5.304;2023-05-28T14:29:23;27.50;29.80
19214;DHT22;9741;51.020;5.304;2023-05-28T14:31:51;27.60;29.70
19214;DHT22;9741;51.020;5.304;2023-05-28T14:34:19;27.60;29.70
19214;DHT22;9741;51.020;5.304;2023-05-28T14:36:46;27.60;29.80
19214;DHT22;9741;51.020;5.304;2023-05-28T14:39:16;27.50;29.90
19214;DHT22;9741;51.020;5.304;2023-05-28T14:41:44;27.60;30.10
19214;DHT22;9741;51.020;5.304;2023-05-28T14:44:16;27.70;30.40
19214;DHT22;9741;51.020;5.304;2023-05-28T14:46:44;27.70;30.40
19214;DHT22;9741;51.020;5.304;2023-05-28T14:49:11;27.70;30.10
19214;DHT22;9741;51.020;5.304;2023-05-28T14:51:39;27.70;30.00
19214;DHT22;9741;51.020;5.304;2023-05-28T14:54:09;27.70;29.90
19214;DHT22;9741;51.020;5.304;2023-05-28T14:56:37;27.60;29.60
19214;DHT22;9741;51.020;5.304;2023-05-28T14:59:07;27.50;29.60
19214;DHT22;9741;51.020;5.304;2023-05-28T15:01:41;27.50;29.50
19214;DHT22;9741;51.020;5.304;2023-05-28T15:04:08;27.50;29.40
19214;DHT22;9741;51.020;5.304;2023-05-28T15:06:36;27.40;29.40
19214;DHT22;9741;51.020;5.304;2023-05-28T15:09:03;27.30;29.60
19214;DHT22;9741;51.020;5.304;2023-05-28T15:11:33;27.20;29.80
19214;DHT22;9741;51.020;5.304;2023-05-28T15:14:00;27.20;29.90
19214;DHT22;9741;51.020;5.304;2023-05-28T15:16:28;27.20;30.00
19214;DHT22;9741;51.020;5.304;2023-05-28T15:18:58;27.20;30.00
19214;DHT22;9741;51.020;5.304;2023-05-28T15:21:25;27.20;30.00
19214;DHT22;9741;51.020;5.304;2023-05-28T15:23:54;27.20;30.20
19214;DHT22;9741;51.020;5.304;2023-05-28T15:26:22;27.20;30.20
19214;DHT22;9741;51.020;5.304;2023-05-28T15:28:50;27.30;30.50
19214;DHT22;9741;51.020;5.304;2023-05-28T15:31:19;27.30;30.20
19214;DHT22;9741;51.020;5.304;2023-05-28T15:33:47;27.30;30.30
19214;DHT22;9741;51.020;5.304;2023-05-28T15:36:18;27.30;30.40
19214;DHT22;9741;51.020;5.304;2023-05-28T15:38:48;27.40;30.50
19214;DHT22;9741;51.020;5.304;2023-05-28T15:41:17;27.40;30.40
19214;DHT22;9741;51.020;5.304;2023-05-28T15:43:47;27.40;30.40
19214;DHT22;9741;51.020;5.304;2023-05-28T15:46:16;27.50;30.60
19214;DHT22;9741;51.020;5.304;2023-05-28T15:48:45;27.50;30.70
19214;DHT22;9741;51.020;5.304;2023-05-28T15:51:12;27.60;30.50
19214;DHT22;9741;51.020;5.304;2023-05-28T15:53:42;27.70;30.50
19214;DHT22;9741;51.020;5.304;2023-05-28T15:56:11;27.60;30.50
19214;DHT22;9741;51.020;5.304;2023-05-28T15:58:39;27.60;30.60